sensor_id;sensor_type;location;lat;lon;timestamp;temperature;humidity
935;DHT22;454;53.254;10.400;2022-11-20T05:01:58;1.70;99.90
935;DHT22;454;53.254;10.400;2022-11-20T05:04:25;1.60;99.90
935;DHT22;454;53.254;10.400;2022-11-20T05:06:51;1.70;99.90
935;DHT22;454;53.254;10.400;2022-11-20T05:09:18;1.60;99.90
935;DHT22;454;53.254;10.400;2022-11-20T05:11:45;1.60;99.90
935;DHT22;454;53.254;10.400;2022-11-20T05:14:11;1.60;99.90
935;DHT22;454;53.254;10.400;2022-11-20T05:16:38;1.60;99.90
935;DHT22;454;53.254;10.400;2022-11-20T05:19:06;1.60;99.90
935;DHT22;454;53.254;10.400;2022-11-20T05:21:33;1.70;99.90
935;DHT22;454;53.254;10.400;2022-11-20T05:23:59;1.70;99.90
935;DHT22;454;53.254;10.400;2022-11-20T05:26:26;1.60;99.90
935;DHT22;454;53.254;10.400;2022-11-20T05:28:53;1.70;99.90
935;DHT22;454;53.254;10.400;2022-11-20T05:31:21;1.70;99.90
935;DHT22;454;53.254;10.400;2022-11-20T05:33:48;1.70;99.90
935;DHT22;454;53.254;10.400;2022-11-20T05:36:17;1.70;99.90
935;DHT22;454;53.254;10.400;2022-11-20T05:38:44;1.70;99.90
935;DHT22;454;53.254;10.400;2022-11-20T05:41:12;1.70;99.90
935;DHT22;454;53.254;10.400;2022-11-20T05:43:40;1.70;99.90
935;DHT22;454;53.254;10.400;2022-11-20T05:46:09;1.80;99.90
935;DHT22;454;53.254;10.400;2022-11-20T05:48:37;1.70;99.90
935;DHT22;454;53.254;10.400;2022-11-20T05:51:06;1.80;99.90
935;DHT22;454;53.254;10.400;2022-11-20T05:53:35;1.80;99.90
935;DHT22;454;53.254;10.400;2022-11-20T05:56:04;1.80;99.90
935;DHT22;454;53.254;10.400;2022-11-20T05:58:31;1.80;99.90
935;DHT22;454;53.254;10.400;2022-11-20T06:01:04;1.80;99.90
935;DHT22;454;53.254;10.400;2022-11-20T06:03:31;1.80;99.90
935;DHT22;454;53.254;10.400;2022-11-20T06:05:58;1.70;99.90
935;DHT22;454;53.254;10.400;2022-11-20T06:08:25;1.70;99.90
935;DHT22;454;53.254;10.400;2022-11-20T06:10:53;1.70;99.90
935;DHT22;454;53.254;10.400;2022-11-20T06:13:20;1.80;99.90
935;DHT22;454;53.254;10.400;2022-11-20T06:15:48;1.70;99.90
935;DHT22;454;53.254;10.400;2022-11-20T06:18:15;1.70;99.90
935;DHT22;454;53.254;10.400;2022-11-20T06:20:42;1.70;99.90
935;DHT22;454;53.254;10.400;2022-11-20T06:23:09;1.70;99.90
935;DHT22;454;53.254;10.400;2022-11-20T06:25:37;1.70;99.90
935;DHT22;454;53.254;10.400;2022-11-20T06:28:06;1.70;99.90
935;DHT22;454;53.254;10.400;2022-11-20T06:30:33;1.70;99.90
935;DHT22;454;53.254;10.400;2022-11-20T06:32:59;1.70;99.90
935;DHT22;454;53.254;10.400;2022-11-20T06:35:26;1.70;99.90
935;DHT22;454;53.254;10.400;2022-11-20T06:37:53;1.60;99.90
935;DHT22;454;53.254;10.400;2022-11-20T06:40:19;1.60;99.90
935;DHT22;454;53.254;10.400;2022-11-20T06:42:46;1.60;99.90
935;DHT22;454;53.254;10.400;2022-11-20T06:45:14;1.60;99.90
935;DHT22;454;53.254;10.400;2022-11-20T06:47:41;1.60;99.90
935;DHT22;454;53.254;10.400;2022-11-20T06:50:08;1.60;99.90
935;DHT22;454;53.254;10.400;2022-11-20T06:52:35;1.60;99.90
935;DHT22;454;53.254;10.400;2022-11-20T06:55:02;1.60;99.90
935;DHT22;454;53.254;10.400;2022-11-20T06:57:29;1.60;99.90
935;DHT22;454;53.254;10.400;2022-11-20T06:59:55;1.60;99.90
935;DHT22;454;53.254;10.400;2022-11-20T07:02:23;1.50;99.90
935;DHT22;454;53.254;10.400;2022-11-20T07:04:50;1.50;99.90
935;DHT22;454;53.254;10.400;2022-11-20T07:07:17;1.50;99.90
935;DHT22;454;53.254;10.400;2022-11-20T07:09:44;1.50;99.90
935;DHT22;454;53.254;10.400;2022-11-20T07:12:13;1.50;99.90
935;DHT22;454;53.254;10.400;2022-11-20T07:14:40;1.50;99.90
935;DHT22;454;53.254;10.400;2022-11-20T07:17:07;1.50;99.90
935;DHT22;454;53.254;10.400;2022-11-20T07:19:35;1.50;99.90
935;DHT22;454;53.254;10.400;2022-11-20T07:22:01;1.50;99.90
935;DHT22;454;53.254;10.400;2022-11-20T07:24:28;1.50;99.90
935;DHT22;454;53.254;10.400;2022-11-20T07:26:55;1.60;99.90
935;DHT22;454;53.254;10.400;2022-11-20T07:29:22;1.50;99.90
935;DHT22;454;53.254;10.400;2022-11-20T07:31:49;1.60;99.90
935;DHT22;454;53.254;10.400;2022-11-20T07:34:15;1.60;99.90
935;DHT22;454;53.254;10.400;2022-11-20T07:36:43;1.60;99.90
935;DHT22;454;53.254;10.400;2022-11-20T07:39:10;1.60;99.90
935;DHT22;454;53.254;10.400;2022-11-20T07:41:37;1.60;99.90
935;DHT22;454;53.254;10.400;2022-11-20T07:44:03;1.60;99.90
935;DHT22;454;53.254;10.400;2022-11-20T07:46:31;1.60;99.90
935;DHT22;454;53.254;10.400;2022-11-20T07:48:57;1.70;99.90
935;DHT22;454;53.254;10.400;2022-11-20T07:51:24;1.70;99.90
935;DHT22;454;53.254;10.400;2022-11-20T07:53:52;1.70;99.90
935;DHT22;454;53.254;10.400;2022-11-20T07:56:19;1.70;99.90
935;DHT22;454;53.254;10.400;2022-11-20T07:58:46;1.70;99.90
935;DHT22;454;53.254;10.400;2022-11-20T08:01:12;1.80;99.90
935;DHT22;454;53.254;10.400;2022-11-20T08:03:39;1.80;99.90
935;DHT22;454;53.254;10.400;2022-11-20T08:06:07;1.80;99.90
935;DHT22;454;53.254;10.400;2022-11-20T08:08:34;1.90;99.90
935;DHT22;454;53.254;10.400;2022-11-20T08:11:02;1.90;99.90
935;DHT22;454;53.254;10.400;2022-11-20T08:13:46;2.00;99.90
935;DHT22;454;53.254;10.400;2022-11-20T08:16:30;2.00;99.90
935;DHT22;454;53.254;10.400;2022-11-20T08:18:57;2.10;99.90
935;DHT22;454;53.254;10.400;2022-11-20T08:21:23;2.10;99.90
935;DHT22;454;53.254;10.400;2022-11-20T08:23:50;2.10;99.90
935;DHT22;454;53.254;10.400;2022-11-20T08:26:18;2.20;99.90
935;DHT22;454;53.254;10.400;2022-11-20T08:28:45;2.30;99.90
935;DHT22;454;53.254;10.400;2022-11-20T08:31:12;2.30;99.90
935;DHT22;454;53.254;10.400;2022-11-20T08:33:38;2.30;99.90
935;DHT22;454;53.254;10.400;2022-11-20T08:36:06;2.30;99.90
935;DHT22;454;53.254;10.400;2022-11-20T08:38:33;2.30;99.90
935;DHT22;454;53.254;10.400;2022-11-20T08:41:00;2.30;99.90
935;DHT22;454;53.254;10.400;2022-11-20T08:43:46;2.40;99.90
935;DHT22;454;53.254;10.400;2022-11-20T08:46:13;2.40;99.90
935;DHT22;454;53.254;10.400;2022-11-20T08:48:40;2.40;99.90
935;DHT22;454;53.254;10.400;2022-11-20T08:51:07;2.40;99.90
935;DHT22;454;53.254;10.400;2022-11-20T08:53:34;2.50;99.90
935;DHT22;454;53.254;10.400;2022-11-20T08:56:00;2.50;99.90
935;DHT22;454;53.254;10.400;2022-11-20T08:58:27;2.60;99.90
935;DHT22;454;53.254;10.400;2022-11-20T09:00:55;2.70;99.90
935;DHT22;454;53.254;10.400;2022-11-20T09:03:22;2.70;99.90
935;DHT22;454;53.254;10.400;2022-11-20T09:05:49;2.80;99.90
935;DHT22;454;53.254;10.400;2022-11-20T09:08:15;2.90;99.90
935;DHT22;454;53.254;10.400;2022-11-20T09:10:42;3.00;99.90
935;DHT22;454;53.254;10.400;2022-11-20T09:13:09;3.00;99.90
935;DHT22;454;53.254;10.400;2022-11-20T09:15:36;3.10;99.90
935;DHT22;454;53.254;10.400;2022-11-20T09:18:04;3.10;99.90
935;DHT22;454;53.254;10.400;2022-11-20T09:20:31;3.10;99.90
935;DHT22;454;53.254;10.400;2022-11-20T09:22:57;3.10;99.90
935;DHT22;454;53.254;10.400;2022-11-20T09:25:24;3.20;99.90
935;DHT22;454;53.254;10.400;2022-11-20T09:27:55;3.10;99.90
935;DHT22;454;53.254;10.400;2022-11-20T09:30:21;3.20;99.90
935;DHT22;454;53.254;10.400;2022-11-20T09:32:48;3.20;99.90
935;DHT22;454;53.254;10.400;2022-11-20T09:35:16;3.20;99.90
935;DHT22;454;53.254;10.400;2022-11-20T09:37:43;3.30;99.90
935;DHT22;454;53.254;10.400;2022-11-20T09:40:17;3.40;99.90
935;DHT22;454;53.254;10.400;2022-11-20T09:42:47;3.30;99.90
935;DHT22;454;53.254;10.400;2022-11-20T09:45:24;3.40;99.90
935;DHT22;454;53.254;10.400;2022-11-20T09:48:19;3.40;99.90
935;DHT22;454;53.254;10.400;2022-11-20T09:50:51;3.30;99.90
935;DHT22;454;53.254;10.400;2022-11-20T09:53:26;3.30;99.90
935;DHT22;454;53.254;10.400;2022-11-20T09:55:55;3.30;99.90
935;DHT22;454;53.254;10.400;2022-11-20T09:58:29;3.30;99.90
935;DHT22;454;53.254;10.400;2022-11-20T10:01:00;3.40;99.90
935;DHT22;454;53.254;10.400;2022-11-20T10:03:37;3.40;99.90
935;DHT22;454;53.254;10.400;2022-11-20T10:06:12;3.40;99.90
935;DHT22;454;53.254;10.400;2022-11-20T10:08:43;3.50;99.90
935;DHT22;454;53.254;10.400;2022-11-20T10:11:22;3.50;99.90
935;DHT22;454;53.254;10.400;2022-11-20T10:13:59;3.50;99.90
935;DHT22;454;53.254;10.400;2022-11-20T10:16:35;3.50;99.90
935;DHT22;454;53.254;10.400;2022-11-20T10:19:18;3.50;99.90
935;DHT22;454;53.254;10.400;2022-11-20T10:21:55;3.50;99.90
935;DHT22;454;53.254;10.400;2022-11-20T10:24:42;3.60;99.90
935;DHT22;454;53.254;10.400;2022-11-20T10:27:28;3.60;99.90
935;DHT22;454;53.254;10.400;2022-11-20T10:30:01;3.70;99.90
935;DHT22;454;53.254;10.400;2022-11-20T10:32:33;3.70;99.90
935;DHT22;454;53.254;10.400;2022-11-20T10:35:05;3.60;99.90
935;DHT22;454;53.254;10.400;2022-11-20T10:37:36;3.60;99.90
935;DHT22;454;53.254;10.400;2022-11-20T10:40:17;3.50;99.90
935;DHT22;454;53.254;10.400;2022-11-20T10:42:47;3.50;99.90
935;DHT22;454;53.254;10.400;2022-11-20T10:45:22;3.40;99.90
935;DHT22;454;53.254;10.400;2022-11-20T10:47:59;3.40;99.90
935;DHT22;454;53.254;10.400;2022-11-20T10:50:32;3.30;99.90
935;DHT22;454;53.254;10.400;2022-11-20T10:53:05;3.30;99.90
935;DHT22;454;53.254;10.400;2022-11-20T10:55:42;3.30;99.90
935;DHT22;454;53.254;10.400;2022-11-20T10:58:14;3.30;99.90
935;DHT22;454;53.254;10.400;2022-11-20T11:00:43;3.30;99.90
935;DHT22;454;53.254;10.400;2022-11-20T11:03:20;3.30;99.90
935;DHT22;454;53.254;10.400;2022-11-20T11:05:50;3.30;99.90
935;DHT22;454;53.254;10.400;2022-11-20T11:08:21;3.30;99.90
935;DHT22;454;53.254;10.400;2022-11-20T11:10:52;3.30;99.90
935;DHT22;454;53.254;10.400;2022-11-20T11:13:21;3.30;99.90
935;DHT22;454;53.254;10.400;2022-11-20T11:15:48;3.30;99.90
935;DHT22;454;53.254;10.400;2022-11-20T11:18:23;3.40;99.90
935;DHT22;454;53.254;10.400;2022-11-20T11:20:51;3.40;99.90
935;DHT22;454;53.254;10.400;2022-11-20T11:23:30;3.40;99.90
935;DHT22;454;53.254;10.400;2022-11-20T11:25:58;3.50;99.90
935;DHT22;454;53.254;10.400;2022-11-20T11:28:26;3.60;99.90
935;DHT22;454;53.254;10.400;2022-11-20T11:30:54;3.80;99.90
935;DHT22;454;53.254;10.400;2022-11-20T11:33:22;3.90;99.90
935;DHT22;454;53.254;10.400;2022-11-20T11:35:51;4.00;99.90
935;DHT22;454;53.254;10.400;2022-11-20T11:38:21;4.00;99.90
935;DHT22;454;53.254;10.400;2022-11-20T11:40:53;4.00;99.90
935;DHT22;454;53.254;10.400;2022-11-20T11:43:23;4.00;99.90
935;DHT22;454;53.254;10.400;2022-11-20T11:46:30;4.10;99.90
935;DHT22;454;53.254;10.400;2022-11-20T11:48:59;4.10;99.90
935;DHT22;454;53.254;10.400;2022-11-20T11:51:30;4.00;99.90
935;DHT22;454;53.254;10.400;2022-11-20T11:53:58;4.00;99.90
935;DHT22;454;53.254;10.400;2022-11-20T11:56:28;3.90;99.90
935;DHT22;454;53.254;10.400;2022-11-20T11:58:57;3.90;99.90
935;DHT22;454;53.254;10.400;2022-11-20T12:01:31;3.90;99.90
935;DHT22;454;53.254;10.400;2022-11-20T12:04:04;4.00;99.90
935;DHT22;454;53.254;10.400;2022-11-20T12:06:32;4.00;99.90
935;DHT22;454;53.254;10.400;2022-11-20T12:09:03;4.00;99.90
935;DHT22;454;53.254;10.400;2022-11-20T12:11:37;4.10;99.90
935;DHT22;454;53.254;10.400;2022-11-20T12:14:11;4.10;99.90
935;DHT22;454;53.254;10.400;2022-11-20T12:16:41;4.20;99.90
935;DHT22;454;53.254;10.400;2022-11-20T12:19:10;4.20;99.90
935;DHT22;454;53.254;10.400;2022-11-20T12:21:47;4.20;99.90
935;DHT22;454;53.254;10.400;2022-11-20T12:24:38;4.10;99.90
935;DHT22;454;53.254;10.400;2022-11-20T12:27:38;4.20;99.90
935;DHT22;454;53.254;10.400;2022-11-20T12:30:08;4.20;99.90
935;DHT22;454;53.254;10.400;2022-11-20T12:32:51;4.20;99.90
935;DHT22;454;53.254;10.400;2022-11-20T12:35:32;4.10;99.90
935;DHT22;454;53.254;10.400;2022-11-20T12:38:17;4.10;99.90
935;DHT22;454;53.254;10.400;2022-11-20T12:40:54;4.00;99.90
935;DHT22;454;53.254;10.400;2022-11-20T12:43:26;3.90;99.90
935;DHT22;454;53.254;10.400;2022-11-20T12:46:27;3.90;99.90
935;DHT22;454;53.254;10.400;2022-11-20T12:49:23;3.80;99.90
935;DHT22;454;53.254;10.400;2022-11-20T12:52:06;3.80;99.90
935;DHT22;454;53.254;10.400;2022-11-20T12:55:03;3.70;99.90
935;DHT22;454;53.254;10.400;2022-11-20T12:57:39;3.60;99.90
935;DHT22;454;53.254;10.400;2022-11-20T13:00:14;3.60;99.90
935;DHT22;454;53.254;10.400;2022-11-20T13:03:00;3.50;99.90
935;DHT22;454;53.254;10.400;2022-11-20T13:05:37;3.50;99.90
935;DHT22;454;53.254;10.400;2022-11-20T13:08:16;3.40;99.90
935;DHT22;454;53.254;10.400;2022-11-20T13:10:47;3.40;99.90
935;DHT22;454;53.254;10.400;2022-11-20T13:13:21;3.30;99.90
935;DHT22;454;53.254;10.400;2022-11-20T13:15:55;3.30;99.90
935;DHT22;454;53.254;10.400;2022-11-20T13:18:25;3.20;99.90
935;DHT22;454;53.254;10.400;2022-11-20T13:20:52;3.20;99.90
935;DHT22;454;53.254;10.400;2022-11-20T13:23:26;3.10;99.90
935;DHT22;454;53.254;10.400;2022-11-20T13:26:04;3.10;99.90
935;DHT22;454;53.254;10.400;2022-11-20T13:28:32;3.10;99.90
935;DHT22;454;53.254;10.400;2022-11-20T13:31:00;3.10;99.90
935;DHT22;454;53.254;10.400;2022-11-20T13:33:31;3.20;99.90
935;DHT22;454;53.254;10.400;2022-11-20T13:36:00;3.20;99.90
935;DHT22;454;53.254;10.400;2022-11-20T13:38:27;3.30;99.90
935;DHT22;454;53.254;10.400;2022-11-20T13:40:56;3.30;99.90
935;DHT22;454;53.254;10.400;2022-11-20T13:43:28;3.30;99.90
935;DHT22;454;53.254;10.400;2022-11-20T13:46:04;3.30;99.90
935;DHT22;454;53.254;10.400;2022-11-20T13:48:33;3.30;99.90
935;DHT22;454;53.254;10.400;2022-11-20T13:51:09;3.30;99.90
935;DHT22;454;53.254;10.400;2022-11-20T13:53:57;3.30;99.90
935;DHT22;454;53.254;10.400;2022-11-20T13:56:36;3.30;99.90
935;DHT22;454;53.254;10.400;2022-11-20T13:59:09;3.30;99.90
935;DHT22;454;53.254;10.400;2022-11-20T14:01:43;3.30;99.90
935;DHT22;454;53.254;10.400;2022-11-20T14:04:14;3.30;99.90
935;DHT22;454;53.254;10.400;2022-11-20T14:06:43;3.30;99.90
935;DHT22;454;53.254;10.400;2022-11-20T14:09:11;3.20;99.90
935;DHT22;454;53.254;10.400;2022-11-20T14:11:45;3.20;99.90
935;DHT22;454;53.254;10.400;2022-11-20T14:14:15;3.20;99.90
935;DHT22;454;53.254;10.400;2022-11-20T14:16:46;3.20;99.90
935;DHT22;454;53.254;10.400;2022-11-20T14:19:26;3.10;99.90
935;DHT22;454;53.254;10.400;2022-11-20T14:22:08;3.10;99.90
935;DHT22;454;53.254;10.400;2022-11-20T14:24:35;3.00;99.90
935;DHT22;454;53.254;10.400;2022-11-20T14:27:02;3.00;99.90
935;DHT22;454;53.254;10.400;2022-11-20T14:29:33;3.00;99.90
935;DHT22;454;53.254;10.400;2022-11-20T14:32:03;2.90;99.90
935;DHT22;454;53.254;10.400;2022-11-20T14:34:32;2.90;99.90
935;DHT22;454;53.254;10.400;2022-11-20T14:37:04;2.90;99.90
935;DHT22;454;53.254;10.400;2022-11-20T14:39:34;2.90;99.90
935;DHT22;454;53.254;10.400;2022-11-20T14:42:01;2.90;99.90
935;DHT22;454;53.254;10.400;2022-11-20T14:44:30;2.90;99.90
935;DHT22;454;53.254;10.400;2022-11-20T14:46:59;2.90;99.90
935;DHT22;454;53.254;10.400;2022-11-20T14:49:29;2.90;99.90
935;DHT22;454;53.254;10.400;2022-11-20T14:52:00;2.90;99.90
935;DHT22;454;53.254;10.400;2022-11-20T14:54:27;2.90;99.90
935;DHT22;454;53.254;10.400;2022-11-20T14:56:56;2.90;99.90
935;DHT22;454;53.254;10.400;2022-11-20T14:59:24;2.90;99.90
935;DHT22;454;53.254;10.400;2022-11-20T15:01:55;2.90;99.90
935;DHT22;454;53.254;10.400;2022-11-20T15:04:23;2.90;99.90
935;DHT22;454;53.254;10.400;2022-11-20T15:06:53;2.90;99.90
935;DHT22;454;53.254;10.400;2022-11-20T15:09:20;2.80;99.90
935;DHT22;454;53.254;10.400;2022-11-20T15:11:53;2.80;99.90
935;DHT22;454;53.254;10.400;2022-11-20T15:14:21;2.80;99.90
935;DHT22;454;53.254;10.400;2022-11-20T15:16:48;2.60;99.90
935;DHT22;454;53.254;10.400;2022-11-20T15:19:17;2.60;99.90
935;DHT22;454;53.254;10.400;2022-11-20T15:21:45;2.60;99.90
935;DHT22;454;53.254;10.400;2022-11-20T15:24:13;2.50;99.90
935;DHT22;454;53.254;10.400;2022-11-20T15:26:40;2.50;99.90
935;DHT22;454;53.254;10.400;2022-11-20T15:29:08;2.40;99.90
935;DHT22;454;53.254;10.400;2022-11-20T15:31:36;2.30;99.90
935;DHT22;454;53.254;10.400;2022-11-20T15:34:04;2.30;99.90
935;DHT22;454;53.254;10.400;2022-11-20T15:36:32;2.30;99.90
935;DHT22;454;53.254;10.400;2022-11-20T15:38:59;2.20;99.90
935;DHT22;454;53.254;10.400;2022-11-20T15:41:27;2.20;99.90
935;DHT22;454;53.254;10.400;2022-11-20T15:43:54;2.10;99.90
935;DHT22;454;53.254;10.400;2022-11-20T15:46:25;2.10;99.90
935;DHT22;454;53.254;10.400;2022-11-20T15:48:55;2.10;99.90
935;DHT22;454;53.254;10.400;2022-11-20T15:51:25;2.10;99.90
935;DHT22;454;53.254;10.400;2022-11-20T15:53:54;2.00;99.90
935;DHT22;454;53.254;10.400;2022-11-20T15:56:20;2.00;99.90
935;DHT22;454;53.254;10.400;2022-11-20T15:58:49;2.00;99.90
935;DHT22;454;53.254;10.400;2022-11-20T16:01:17;2.00;99.90
935;DHT22;454;53.254;10.400;2022-11-20T16:03:44;2.00;99.90
935;DHT22;454;53.254;10.400;2022-11-20T16:06:11;2.00;99.90
935;DHT22;454;53.254;10.400;2022-11-20T16:08:38;2.00;99.90
935;DHT22;454;53.254;10.400;2022-11-20T16:11:05;2.00;99.90
935;DHT22;454;53.254;10.400;2022-11-20T16:13:32;2.00;99.90
935;DHT22;454;53.254;10.400;2022-11-20T16:16:21;2.00;99.90
935;DHT22;454;53.254;10.400;2022-11-20T16:18:48;2.10;99.90
935;DHT22;454;53.254;10.400;2022-11-20T16:21:15;2.00;99.90
935;DHT22;454;53.254;10.400;2022-11-20T16:23:42;2.10;99.90
935;DHT22;454;53.254;10.400;2022-11-20T16:26:10;2.10;99.90
935;DHT22;454;53.254;10.400;2022-11-20T16:28:37;2.10;99.90
935;DHT22;454;53.254;10.400;2022-11-20T16:31:09;2.10;99.90
935;DHT22;454;53.254;10.400;2022-11-20T16:33:37;2.10;99.90
935;DHT22;454;53.254;10.400;2022-11-20T16:36:08;2.20;99.90
935;DHT22;454;53.254;10.400;2022-11-20T16:38:35;2.20;99.90
935;DHT22;454;53.254;10.400;2022-11-20T16:41:03;2.20;99.90
935;DHT22;454;53.254;10.400;2022-11-20T16:43:29;2.20;99.90
935;DHT22;454;53.254;10.400;2022-11-20T16:45:56;2.20;99.90
935;DHT22;454;53.254;10.400;2022-11-20T16:48:23;2.20;99.90
935;DHT22;454;53.254;10.400;2022-11-20T16:50:52;2.30;99.90
935;DHT22;454;53.254;10.400;2022-11-20T16:53:20;2.30;99.90
935;DHT22;454;53.254;10.400;2022-11-20T16:55:47;2.20;99.90
935;DHT22;454;53.254;10.400;2022-11-20T16:58:14;2.20;99.90
935;DHT22;454;53.254;10.400;2022-11-20T17:00:41;2.20;99.90
935;DHT22;454;53.254;10.400;2022-11-20T17:03:08;2.20;99.90
935;DHT22;454;53.254;10.400;2022-11-20T17:05:35;2.10;99.90
935;DHT22;454;53.254;10.400;2022-11-20T17:08:03;2.10;99.90
935;DHT22;454;53.254;10.400;2022-11-20T17:10:30;2.10;99.90
935;DHT22;454;53.254;10.400;2022-11-20T17:12:57;2.00;99.90
935;DHT22;454;53.254;10.400;2022-11-20T17:15:24;2.00;99.90
935;DHT22;454;53.254;10.400;2022-11-20T17:17:50;2.00;99.90
935;DHT22;454;53.254;10.400;2022-11-20T17:20:17;1.90;99.90
935;DHT22;454;53.254;10.400;2022-11-20T17:22:44;1.90;99.90
935;DHT22;454;53.254;10.400;2022-11-20T17:25:12;1.90;99.90
935;DHT22;454;53.254;10.400;2022-11-20T17:27:38;1.90;99.90
935;DHT22;454;53.254;10.400;2022-11-20T17:30:06;1.80;99.90
935;DHT22;454;53.254;10.400;2022-11-20T17:32:33;1.80;99.90
935;DHT22;454;53.254;10.400;2022-11-20T17:34:59;1.80;99.90
935;DHT22;454;53.254;10.400;2022-11-20T17:37:26;1.80;99.90
935;DHT22;454;53.254;10.400;2022-11-20T17:39:53;1.80;99.90
935;DHT22;454;53.254;10.400;2022-11-20T17:42:21;1.80;99.90
935;DHT22;454;53.254;10.400;2022-11-20T17:44:54;1.70;99.90
935;DHT22;454;53.254;10.400;2022-11-20T17:47:23;1.70;99.90
935;DHT22;454;53.254;10.400;2022-11-20T17:49:50;1.70;99.90
935;DHT22;454;53.254;10.400;2022-11-20T17:52:16;1.70;99.90
935;DHT22;454;53.254;10.400;2022-11-20T17:54:43;1.60;99.90
935;DHT22;454;53.254;10.400;2022-11-20T17:57:10;1.60;99.90
935;DHT22;454;53.254;10.400;2022-11-20T17:59:55;1.50;99.90
935;DHT22;454;53.254;10.400;2022-11-20T18:02:23;1.50;99.90
935;DHT22;454;53.254;10.400;2022-11-20T18:04:50;1.40;99.90
935;DHT22;454;53.254;10.400;2022-11-20T18:07:16;1.40;99.90
935;DHT22;454;53.254;10.400;2022-11-20T18:09:43;1.30;99.90
935;DHT22;454;53.254;10.400;2022-11-20T18:12:10;1.30;99.90
935;DHT22;454;53.254;10.400;2022-11-20T18:14:36;1.20;99.90
935;DHT22;454;53.254;10.400;2022-11-20T18:17:06;1.20;99.90
935;DHT22;454;53.254;10.400;2022-11-20T18:19:34;1.20;99.90
935;DHT22;454;53.254;10.400;2022-11-20T18:22:01;1.10;99.90
935;DHT22;454;53.254;10.400;2022-11-20T18:24:29;1.10;99.90
935;DHT22;454;53.254;10.400;2022-11-20T18:26:56;1.10;99.90
935;DHT22;454;53.254;10.400;2022-11-20T18:29:23;1.00;99.90
935;DHT22;454;53.254;10.400;2022-11-20T18:31:50;1.00;99.90
935;DHT22;454;53.254;10.400;2022-11-20T18:34:18;0.90;99.90
935;DHT22;454;53.254;10.400;2022-11-20T18:36:45;0.90;99.90
935;DHT22;454;53.254;10.400;2022-11-20T18:39:13;0.90;99.90
935;DHT22;454;53.254;10.400;2022-11-20T18:41:40;0.90;99.90
935;DHT22;454;53.254;10.400;2022-11-20T18:44:26;0.80;99.90
935;DHT22;454;53.254;10.400;2022-11-20T18:47:12;0.80;99.90
935;DHT22;454;53.254;10.400;2022-11-20T18:49:41;0.80;99.90
935;DHT22;454;53.254;10.400;2022-11-20T18:52:11;0.70;99.90
935;DHT22;454;53.254;10.400;2022-11-20T18:54:38;0.70;99.90
935;DHT22;454;53.254;10.400;2022-11-20T18:57:04;0.70;99.90
935;DHT22;454;53.254;10.400;2022-11-20T18:59:31;0.70;99.90
935;DHT22;454;53.254;10.400;2022-11-20T19:01:58;0.70;99.90
935;DHT22;454;53.254;10.400;2022-11-20T19:04:24;0.70;99.90
935;DHT22;454;53.254;10.400;2022-11-20T19:06:53;0.70;99.90
935;DHT22;454;53.254;10.400;2022-11-20T19:09:21;0.70;99.90
935;DHT22;454;53.254;10.400;2022-11-20T19:11:48;0.70;99.90
935;DHT22;454;53.254;10.400;2022-11-20T19:14:15;0.70;99.90
935;DHT22;454;53.254;10.400;2022-11-20T19:16:42;0.70;99.90
935;DHT22;454;53.254;10.400;2022-11-20T19:19:08;0.70;99.90
935;DHT22;454;53.254;10.400;2022-11-20T19:21:35;0.70;99.90
935;DHT22;454;53.254;10.400;2022-11-20T19:24:04;0.70;99.90
935;DHT22;454;53.254;10.400;2022-11-20T19:26:33;0.70;99.90
935;DHT22;454;53.254;10.400;2022-11-20T19:28:59;0.70;99.90
935;DHT22;454;53.254;10.400;2022-11-20T19:31:26;0.80;99.90
935;DHT22;454;53.254;10.400;2022-11-20T19:33:53;0.80;99.90
935;DHT22;454;53.254;10.400;2022-11-20T19:36:23;0.80;99.90
935;DHT22;454;53.254;10.400;2022-11-20T19:38:51;0.80;99.90
935;DHT22;454;53.254;10.400;2022-11-20T19:41:21;0.80;99.90
935;DHT22;454;53.254;10.400;2022-11-20T19:43:56;0.80;99.90
935;DHT22;454;53.254;10.400;2022-11-20T19:46:24;0.80;99.90
935;DHT22;454;53.254;10.400;2022-11-20T19:48:51;0.70;99.90
935;DHT22;454;53.254;10.400;2022-11-20T19:51:20;0.80;99.90
935;DHT22;454;53.254;10.400;2022-11-20T19:53:47;0.80;99.90
935;DHT22;454;53.254;10.400;2022-11-20T19:56:15;0.80;99.90
935;DHT22;454;53.254;10.400;2022-11-20T19:58:43;0.80;99.90
935;DHT22;454;53.254;10.400;2022-11-20T20:01:11;0.80;99.90
935;DHT22;454;53.254;10.400;2022-11-20T20:03:39;0.80;99.90
935;DHT22;454;53.254;10.400;2022-11-20T20:06:08;0.80;99.90
935;DHT22;454;53.254;10.400;2022-11-20T20:08:36;0.70;99.90
935;DHT22;454;53.254;10.400;2022-11-20T20:11:09;0.70;99.90
935;DHT22;454;53.254;10.400;2022-11-20T20:13:36;0.70;99.90
935;DHT22;454;53.254;10.400;2022-11-20T20:16:07;0.60;99.90
935;DHT22;454;53.254;10.400;2022-11-20T20:18:34;0.60;99.90
935;DHT22;454;53.254;10.400;2022-11-20T20:21:02;0.60;99.90
935;DHT22;454;53.254;10.400;2022-11-20T20:23:29;0.50;99.90
935;DHT22;454;53.254;10.400;2022-11-20T20:25:56;0.50;99.90
935;DHT22;454;53.254;10.400;2022-11-20T20:28:23;0.40;99.90
935;DHT22;454;53.254;10.400;2022-11-20T20:30:49;0.40;99.90
935;DHT22;454;53.254;10.400;2022-11-20T20:33:18;0.40;99.90
935;DHT22;454;53.254;10.400;2022-11-20T20:35:44;0.40;99.90
935;DHT22;454;53.254;10.400;2022-11-20T20:38:11;0.30;99.90
935;DHT22;454;53.254;10.400;2022-11-20T20:40:38;0.30;99.90
935;DHT22;454;53.254;10.400;2022-11-20T20:43:05;0.30;99.90
935;DHT22;454;53.254;10.400;2022-11-20T20:45:31;0.30;99.90
935;DHT22;454;53.254;10.400;2022-11-20T20:47:58;0.30;99.90
935;DHT22;454;53.254;10.400;2022-11-20T20:50:26;0.30;99.90
935;DHT22;454;53.254;10.400;2022-11-20T20:52:53;0.30;99.90
935;DHT22;454;53.254;10.400;2022-11-20T20:55:19;0.30;99.90
935;DHT22;454;53.254;10.400;2022-11-20T20:57:46;0.30;99.90
935;DHT22;454;53.254;10.400;2022-11-20T21:00:14;0.30;99.90
935;DHT22;454;53.254;10.400;2022-11-20T21:02:41;0.30;99.90
935;DHT22;454;53.254;10.400;2022-11-20T21:05:08;0.30;99.90
935;DHT22;454;53.254;10.400;2022-11-20T21:07:36;0.30;99.90
935;DHT22;454;53.254;10.400;2022-11-20T21:10:23;0.30;99.90
935;DHT22;454;53.254;10.400;2022-11-20T21:12:50;0.30;99.90
935;DHT22;454;53.254;10.400;2022-11-20T21:15:17;0.30;99.90
935;DHT22;454;53.254;10.400;2022-11-20T21:17:43;0.40;99.90
935;DHT22;454;53.254;10.400;2022-11-20T21:20:10;0.40;99.90
935;DHT22;454;53.254;10.400;2022-11-20T21:23:00;0.40;99.90
935;DHT22;454;53.254;10.400;2022-11-20T21:25:35;0.40;99.90
935;DHT22;454;53.254;10.400;2022-11-20T21:28:02;0.30;99.90
935;DHT22;454;53.254;10.400;2022-11-20T21:30:29;0.40;99.90
935;DHT22;454;53.254;10.400;2022-11-20T21:32:55;0.40;99.90
935;DHT22;454;53.254;10.400;2022-11-20T21:35:22;0.30;99.90
935;DHT22;454;53.254;10.400;2022-11-20T21:37:49;0.30;99.90
935;DHT22;454;53.254;10.400;2022-11-20T21:40:17;0.20;99.90
935;DHT22;454;53.254;10.400;2022-11-20T21:42:43;0.10;99.90
935;DHT22;454;53.254;10.400;2022-11-20T21:45:10;0.10;99.90
935;DHT22;454;53.254;10.400;2022-11-20T21:47:37;0.20;99.90
935;DHT22;454;53.254;10.400;2022-11-20T21:50:04;0.20;99.90
935;DHT22;454;53.254;10.400;2022-11-20T21:52:31;0.10;99.90